(°C)
11°
11°
12°
14°
16°
18°
20°
(°C)
10°
12°
14°
15°
18°
NE
NNE
NNE
NE
NE
NE
NE
(km/h)
13-19
11-22
9-17
9-18
9-19
9-18
8-18
(mm)
0
0
0
0
0
0
0
(%)
7
7
6
6
6
0
0

Elevación del sol

/ -4.9°
sun-icon
UV 6
06:06
21:07
Creciente (58°)
10:26
00:29

METAR a Ioánina (LGIO)

Hora Condiciones Temperatura/
Punto de condensación
Viento Visibilidad Tiempo Nubes Presión Cambiar Bruto
11°C / 6°C variable 2kt - 1014 - LGIO 150220Z AUTO VRB02KT //// // ////// 11/06 Q1014 RE//
12°C / 6°C variable 2kt - 1014 - LGIO 150150Z AUTO VRB02KT //// // ////// 12/06 Q1014 RE//
14°C / 6°C 360º variable 220º to 010º 4kt - 1014 - LGIO 150120Z AUTO 36004KT 220V010 //// // ////// 14/06 Q1014 RE//
13°C / 6°C variable 2kt - 1014 - LGIO 150050Z AUTO VRB02KT //// // ////// 13/06 Q1014 RE//
14°C / 5°C 290º variable 220º to 300º 4kt - 1014 - LGIO 150020Z AUTO 29004KT 220V300 //// // ////// 14/05 Q1014 RE//
16°C / 4°C 350º variable 260º to 020º 7kt - 1014 - LGIO 142350Z AUTO 35007KT 260V020 //// // ////// 16/04 Q1014 RE//
16°C / 4°C 330º variable 220º to 350º 5kt - 1014 - LGIO 142320Z AUTO 33005KT 220V350 //// // ////// 16/04 Q1014 RE//
16°C / 4°C variable 3kt - 1014 - LGIO 142250Z AUTO VRB03KT //// // ////// 16/04 Q1014 RE//
17°C / 4°C 340º variable 300º to 030º 6kt - 1014 - LGIO 142220Z AUTO 34006KT 300V030 //// // ////// 17/04 Q1014 RE//
16°C / 5°C 320º variable 170º to 160º 4kt - 1014 - LGIO 142150Z AUTO 32004KT 170V160 //// // ////// 16/05 Q1014 RE//
16°C / 5°C 40º variable 360º to 160º 11kt Gust 22kt - 1014 - LGIO 142120Z AUTO 04011G22KT 360V160 //// // ////// 16/05 Q1014 RE//
16°C / 6°C 50º variable 010º to 100º 13kt Gust 28kt - 1014 - LGIO 142050Z AUTO 05013G28KT 010V100 //// // ////// 16/06 Q1014 RE//
16°C / 6°C 20º variable 360º to 090º 13kt Gust 26kt - 1014 - LGIO 142020Z AUTO 02013G26KT 360V090 //// // ////// 16/06 Q1014 RE//
17°C / 6°C 50º variable 010º to 070º 15kt Gust 26kt - 1013 - LGIO 141950Z AUTO 05015G26KT 010V070 //// // ////// 17/06 Q1013 RE//
18°C / 6°C 50º variable 360º to 080º 12kt - 1012 - LGIO 141920Z AUTO 05012KT 360V080 //// // ////// 18/06 Q1012 RE//
19°C / 6°C 20º variable 250º to 070º 10kt Gust 20kt - 1012 - LGIO 141850Z AUTO 02010G20KT 250V070 //// // ////// 19/06 Q1012 RE//
VFR 20°C / 7°C 310º 10kt >10km - Scattered Clouds 3500ft 1011 - LGIO 141750Z 31010KT 9999 SCT035 SCT080 20/07 Q1011
VFR 22°C / 10°C 280º 8kt >10km - Scattered Clouds 3500ft 1011 - LGIO 141650Z 28008KT 9999 SCT035 SCT080 22/10 Q1011
VFR 22°C / 10°C 270º 8kt >10km - Scattered Clouds 3500ft 1011 - LGIO 141620Z 27008KT 9999 SCT035 SCT080 22/10 Q1011
VFR 23°C / 6°C variable 2kt >10km - Scattered Clouds 3500ft 1011 - LGIO 141520Z VRB02KT 9999 SCT035 SCT080 23/06 Q1011
25°C / 5°C 160º 5kt - 1011 - LGIO 141450Z AUTO 16005KT //// // ////// 25/05 Q1011 RE//
24°C / 6°C 110º variable 060º to 130º 6kt - 1011 - LGIO 141420Z AUTO 11006KT 060V130 //// // ////// 24/06 Q1011 RE//
25°C / 6°C 130º 7kt - 1012 - LGIO 141350Z AUTO 13007KT //// // ////// 25/06 Q1012 RE//
24°C / 6°C 110º variable 100º to 210º 4kt - 1012 - LGIO 141320Z AUTO 11004KT 100V210 //// // ////// 24/06 Q1012 RE//

11°C / 6°C

[Más]
Viento variable 2kt
Visibilidad
Tiempo -
Nubes
Presión 1014
Cambiar -
Bruto LGIO 150220Z AUTO VRB02KT //// // ////// 11/06 Q1014 RE//

12°C / 6°C

[Más]
Viento variable 2kt
Visibilidad
Tiempo -
Nubes
Presión 1014
Cambiar -
Bruto LGIO 150150Z AUTO VRB02KT //// // ////// 12/06 Q1014 RE//

14°C / 6°C

[Más]
Viento 360º variable 220º to 010º 4kt
Visibilidad
Tiempo -
Nubes
Presión 1014
Cambiar -
Bruto LGIO 150120Z AUTO 36004KT 220V010 //// // ////// 14/06 Q1014 RE//

13°C / 6°C

[Más]
Viento variable 2kt
Visibilidad
Tiempo -
Nubes
Presión 1014
Cambiar -
Bruto LGIO 150050Z AUTO VRB02KT //// // ////// 13/06 Q1014 RE//

14°C / 5°C

[Más]
Viento 290º variable 220º to 300º 4kt
Visibilidad
Tiempo -
Nubes
Presión 1014
Cambiar -
Bruto LGIO 150020Z AUTO 29004KT 220V300 //// // ////// 14/05 Q1014 RE//

16°C / 4°C

[Más]
Viento 350º variable 260º to 020º 7kt
Visibilidad
Tiempo -
Nubes
Presión 1014
Cambiar -
Bruto LGIO 142350Z AUTO 35007KT 260V020 //// // ////// 16/04 Q1014 RE//

16°C / 4°C

[Más]
Viento 330º variable 220º to 350º 5kt
Visibilidad
Tiempo -
Nubes
Presión 1014
Cambiar -
Bruto LGIO 142320Z AUTO 33005KT 220V350 //// // ////// 16/04 Q1014 RE//

16°C / 4°C

[Más]
Viento variable 3kt
Visibilidad
Tiempo -
Nubes
Presión 1014
Cambiar -
Bruto LGIO 142250Z AUTO VRB03KT //// // ////// 16/04 Q1014 RE//

17°C / 4°C

[Más]
Viento 340º variable 300º to 030º 6kt
Visibilidad
Tiempo -
Nubes
Presión 1014
Cambiar -
Bruto LGIO 142220Z AUTO 34006KT 300V030 //// // ////// 17/04 Q1014 RE//

16°C / 5°C

[Más]
Viento 320º variable 170º to 160º 4kt
Visibilidad
Tiempo -
Nubes
Presión 1014
Cambiar -
Bruto LGIO 142150Z AUTO 32004KT 170V160 //// // ////// 16/05 Q1014 RE//

16°C / 5°C

[Más]
Viento 40º variable 360º to 160º 11kt Gust 22kt
Visibilidad
Tiempo -
Nubes
Presión 1014
Cambiar -
Bruto LGIO 142120Z AUTO 04011G22KT 360V160 //// // ////// 16/05 Q1014 RE//

16°C / 6°C

[Más]
Viento 50º variable 010º to 100º 13kt Gust 28kt
Visibilidad
Tiempo -
Nubes
Presión 1014
Cambiar -
Bruto LGIO 142050Z AUTO 05013G28KT 010V100 //// // ////// 16/06 Q1014 RE//

16°C / 6°C

[Más]
Viento 20º variable 360º to 090º 13kt Gust 26kt
Visibilidad
Tiempo -
Nubes
Presión 1014
Cambiar -
Bruto LGIO 142020Z AUTO 02013G26KT 360V090 //// // ////// 16/06 Q1014 RE//

17°C / 6°C

[Más]
Viento 50º variable 010º to 070º 15kt Gust 26kt
Visibilidad
Tiempo -
Nubes
Presión 1013
Cambiar -
Bruto LGIO 141950Z AUTO 05015G26KT 010V070 //// // ////// 17/06 Q1013 RE//

18°C / 6°C

[Más]
Viento 50º variable 360º to 080º 12kt
Visibilidad
Tiempo -
Nubes
Presión 1012
Cambiar -
Bruto LGIO 141920Z AUTO 05012KT 360V080 //// // ////// 18/06 Q1012 RE//

19°C / 6°C

[Más]
Viento 20º variable 250º to 070º 10kt Gust 20kt
Visibilidad
Tiempo -
Nubes
Presión 1012
Cambiar -
Bruto LGIO 141850Z AUTO 02010G20KT 250V070 //// // ////// 19/06 Q1012 RE//

VFR

20°C / 7°C

[Más]
Viento 310º 10kt
Visibilidad >10km
Tiempo -
Nubes Scattered Clouds 3500ft
Presión 1011
Cambiar -
Bruto LGIO 141750Z 31010KT 9999 SCT035 SCT080 20/07 Q1011

VFR

22°C / 10°C

[Más]
Viento 280º 8kt
Visibilidad >10km
Tiempo -
Nubes Scattered Clouds 3500ft
Presión 1011
Cambiar -
Bruto LGIO 141650Z 28008KT 9999 SCT035 SCT080 22/10 Q1011

VFR

22°C / 10°C

[Más]
Viento 270º 8kt
Visibilidad >10km
Tiempo -
Nubes Scattered Clouds 3500ft
Presión 1011
Cambiar -
Bruto LGIO 141620Z 27008KT 9999 SCT035 SCT080 22/10 Q1011

VFR

23°C / 6°C

[Más]
Viento variable 2kt
Visibilidad >10km
Tiempo -
Nubes Scattered Clouds 3500ft
Presión 1011
Cambiar -
Bruto LGIO 141520Z VRB02KT 9999 SCT035 SCT080 23/06 Q1011

25°C / 5°C

[Más]
Viento 160º 5kt
Visibilidad
Tiempo -
Nubes
Presión 1011
Cambiar -
Bruto LGIO 141450Z AUTO 16005KT //// // ////// 25/05 Q1011 RE//

24°C / 6°C

[Más]
Viento 110º variable 060º to 130º 6kt
Visibilidad
Tiempo -
Nubes
Presión 1011
Cambiar -
Bruto LGIO 141420Z AUTO 11006KT 060V130 //// // ////// 24/06 Q1011 RE//

25°C / 6°C

[Más]
Viento 130º 7kt
Visibilidad
Tiempo -
Nubes
Presión 1012
Cambiar -
Bruto LGIO 141350Z AUTO 13007KT //// // ////// 25/06 Q1012 RE//

24°C / 6°C

[Más]
Viento 110º variable 100º to 210º 4kt
Visibilidad
Tiempo -
Nubes
Presión 1012
Cambiar -
Bruto LGIO 141320Z AUTO 11004KT 100V210 //// // ////// 24/06 Q1012 RE//

TAF a Ioánina (LGIO)

From till


From till Wind variable 3kt. Visibility 10km or more. Scattered Clouds 2500ft. Scattered Clouds 8000ft.
Becoming from till Wind variable 3kt. Visibility 10km or more. Few Clouds 3000ft.
Becoming from till Wind variable 3kt. Visibility 10km or more. Scattered Clouds 2500ft. Scattered Clouds 8000ft.
With 30% probability, Temporarly from till Visibility 6000m. Showers Rain . Few Clouds 1800ft. Scattered Clouds 2000ft. Broken Clouds 7000ft.

Bruto: TAF LGIO 150200Z 1503/1512 VRB03KT 9999 SCT025 SCT080 BECMG 1503/1505 FEW030 BECMG 1507/1509 SCT025 SCT080 PROB30 TEMPO 1509/1512 6000 SHRA FEW018TCU SCT020 BKN070

Imágenes actuales de satélite y lluvia para Ioánina, Grecia

El marcador de lugar se coloca en Ioánina. [Más]

La imagen de satélite en tiempo real se aprovecha de la combinación de bandas de la luz visible y de la luz infrarrojo. Como se puede detectar cambios de temperaturas atreves de la banda infrarrojo, la imagen no está escura de noche. No obstante, la niebla y las nubes bajas son apenas visibles en las imágenes infrarrojo como las diferencias de temperaturas entre el suelo y la niebla son muy pequeñas. Por eso son casi invisibles durante la noche. Las imágenes de satélite del Meteosat (Europa) son actualizados en tiempo real cada 5 minutos. Las imágenes del GOES-16/GOES-17 (América del Norte y América del Sur) y Himawari (Asia) son actualizados cada 10 minutos.

La precipitación se estima a partir de radares y satélites. Estimaciones de precipitación de la noche de los satélites son menos precisas que durante el día. Cruces naranjas identifican lugares donde relámpagos fueron detectados (en Europa).

Copyright 2021 EUMETSAT / meteoblue. Datos de relámpagos proporcionados por nowcast.

Radar y precipitación nowcast para Ioánina

El marcador de lugar se coloca en Ioánina. Esta animación muestra lo radar de precipitaciones hasta la última hora, así como la 1h previsión. Llovizna o ligera caída de nieve pueden ser invisibles para el radar. Intensidad de la precipitación se codifica en colores, que van desde azul a púrpura oscura.

Situación meteorológica actual y advertencias

EUMETNET – MeteoAlarm

pictomap

Fuente : HNMS

Los retrasos de tiempo entre este sitio web y www.meteoalarm.eu son ​​posibles. Para obtener la información más actualizada sobre los niveles de alerta según lo publicado por los Servicios Meteorológicos Nacionales participantes, por favor, utilice www.meteoalarm.eu.